Time;durP1;ratioP1;P1;durP2;ratioP2;P2;SDS_P1;SDS_P2;PMS_P1;PMS_P2;Temp;Humidity;BMP_temperature;BMP_pressure;BME280_temperature;BME280_humidity;BME280_pressure;Samples;Min_cycle;Max_cycle;Signal;HPM_P1;HPM_P2
2023/06/27 00:01:04;;;;;;;3.43;2.50;;;;;;;;;;5033237;28;20643;-65
2023/06/27 00:03:33;;;;;;;3.03;2.93;;;;;;;;;;5032826;28;20623;-63
2023/06/27 00:06:03;;;;;;;5.60;2.87;;;;;;;;;;5036438;28;20684;-64
2023/06/27 00:08:32;;;;;;;3.30;3.00;;;;;;;;;;5035678;28;20652;-63
2023/06/27 00:11:00;;;;;;;3.83;3.03;;;;;;;;;;5036549;28;20680;-64
2023/06/27 00:13:29;;;;;;;5.60;3.00;;;;;;;;;;5036041;28;20663;-63
2023/06/27 00:16:00;;;;;;;3.33;2.67;;;;;;;;;;5026377;28;20620;-63
2023/06/27 00:18:34;;;;;;;3.50;2.70;;;;;;;;;;5032726;28;20621;-66
2023/06/27 00:21:03;;;;;;;2.87;2.70;;;;;;;;;;5034021;28;20663;-62
2023/06/27 00:23:34;;;;;;;3.17;2.87;;;;;;;;;;5033007;28;20640;-62
2023/06/27 00:26:02;;;;;;;2.83;2.63;;;;;;;;;;5032689;28;20656;-63
2023/06/27 00:28:30;;;;;;;6.40;2.77;;;;;;;;;;5015214;28;20645;-63
2023/06/27 00:31:00;;;;;;;6.43;3.47;;;;;;;;;;5032983;28;20655;-66
2023/06/27 00:33:28;;;;;;;4.03;3.63;;;;;;;;;;5033221;28;20633;-64
2023/06/27 00:35:57;;;;;;;3.30;3.10;;;;;;;;;;5033678;28;20612;-64
2023/06/27 00:38:25;;;;;;;3.00;2.77;;;;;;;;;;5032845;28;20636;-64
2023/06/27 00:40:53;;;;;;;3.20;2.90;;;;;;;;;;5032192;28;20672;-63
2023/06/27 00:43:21;;;;;;;2.80;2.60;;;;;;;;;;5045436;28;20628;-63
2023/06/27 00:45:51;;;;;;;5.43;3.43;;;;;;;;;;5035241;28;20668;-64
2023/06/27 00:48:21;;;;;;;2.97;2.73;;;;;;;;;;5053132;28;20639;-65
2023/06/27 00:50:50;;;;;;;4.20;2.90;;;;;;;;;;5052625;28;20647;-64
2023/06/27 00:53:18;;;;;;;5.13;2.80;;;;;;;;;;5052270;28;20659;-66
2023/06/27 00:55:47;;;;;;;3.10;2.90;;;;;;;;;;5051623;28;21244;-63
2023/06/27 00:58:15;;;;;;;3.40;3.00;;;;;;;;;;5035315;28;20635;-67
2023/06/27 01:00:43;;;;;;;2.60;2.50;;;;;;;;;;5034417;28;20640;-65
2023/06/27 01:03:11;;;;;;;14.30;3.00;;;;;;;;;;5051518;28;20639;-65
2023/06/27 01:05:43;;;;;;;3.17;2.77;;;;;;;;;;5034895;28;20651;-64
2023/06/27 01:08:18;;;;;;;2.80;2.60;;;;;;;;;;5052443;28;20607;-65
2023/06/27 01:10:49;;;;;;;3.00;2.80;;;;;;;;;;5043885;28;20703;-64
2023/06/27 01:13:19;;;;;;;8.07;2.97;;;;;;;;;;5031647;28;20597;-64
2023/06/27 01:15:47;;;;;;;3.60;2.90;;;;;;;;;;5015903;28;20660;-65
2023/06/27 01:18:19;;;;;;;4.00;2.90;;;;;;;;;;5014949;28;20640;-65
2023/06/27 01:20:49;;;;;;;2.97;2.60;;;;;;;;;;5031944;28;20628;-64
2023/06/27 01:23:19;;;;;;;5.17;3.00;;;;;;;;;;5014837;28;20613;-65
2023/06/27 01:25:51;;;;;;;5.53;3.20;;;;;;;;;;5032286;28;20611;-65
2023/06/27 01:28:19;;;;;;;4.97;2.70;;;;;;;;;;5031918;28;20624;-65
2023/06/27 01:30:47;;;;;;;3.30;3.00;;;;;;;;;;5032815;28;20687;-63
2023/06/27 01:33:18;;;;;;;3.73;2.70;;;;;;;;;;5031803;28;20617;-67
2023/06/27 01:35:50;;;;;;;2.70;2.50;;;;;;;;;;5015615;28;20624;-65
2023/06/27 01:38:21;;;;;;;3.17;2.83;;;;;;;;;;5031875;28;20604;-64
2023/06/27 01:40:51;;;;;;;3.47;2.80;;;;;;;;;;5032598;28;20661;-64
2023/06/27 01:43:21;;;;;;;4.87;2.90;;;;;;;;;;5043591;28;20620;-63
2023/06/27 01:45:50;;;;;;;3.33;3.03;;;;;;;;;;5026587;28;20660;-63
2023/06/27 01:48:18;;;;;;;4.20;2.73;;;;;;;;;;5031210;28;20636;-63
2023/06/27 01:50:47;;;;;;;2.77;2.53;;;;;;;;;;5031212;28;20637;-64
2023/06/27 01:53:15;;;;;;;2.77;2.57;;;;;;;;;;5030544;28;20652;-67
2023/06/27 01:55:45;;;;;;;4.20;2.80;;;;;;;;;;5031736;28;20640;-63
2023/06/27 01:58:16;;;;;;;3.20;2.90;;;;;;;;;;5031173;28;20648;-67
2023/06/27 02:00:46;;;;;;;3.00;2.80;;;;;;;;;;5030564;28;20605;-63
2023/06/27 02:03:14;;;;;;;3.20;3.00;;;;;;;;;;5030895;28;20636;-67
2023/06/27 02:05:43;;;;;;;3.70;3.00;;;;;;;;;;5030831;28;20641;-63
2023/06/27 02:08:11;;;;;;;2.77;2.50;;;;;;;;;;5031954;28;20695;-63
2023/06/27 02:10:39;;;;;;;4.03;3.03;;;;;;;;;;5033035;28;20691;-64
2023/06/27 02:13:10;;;;;;;2.77;2.57;;;;;;;;;;5050900;28;20628;-64
2023/06/27 02:15:40;;;;;;;2.50;2.40;;;;;;;;;;5033895;28;20637;-63
2023/06/27 02:18:08;;;;;;;2.77;2.57;;;;;;;;;;5051101;28;20632;-63
2023/06/27 02:20:36;;;;;;;3.70;3.00;;;;;;;;;;5051113;28;20643;-64
2023/06/27 02:23:05;;;;;;;3.13;2.47;;;;;;;;;;5032987;28;20659;-66
2023/06/27 02:25:33;;;;;;;3.03;2.47;;;;;;;;;;5050713;28;20674;-66
2023/06/27 02:28:01;;;;;;;7.43;2.80;;;;;;;;;;5050991;28;20679;-64
2023/06/27 02:30:29;;;;;;;3.87;2.60;;;;;;;;;;5050434;28;20658;-64
2023/06/27 02:32:59;;;;;;;6.57;2.83;;;;;;;;;;5038020;28;20651;-64
2023/06/27 02:35:27;;;;;;;7.23;2.77;;;;;;;;;;5050828;28;20635;-64
2023/06/27 02:37:55;;;;;;;5.33;3.43;;;;;;;;;;5050958;28;20652;-63
2023/06/27 02:40:23;;;;;;;3.57;2.30;;;;;;;;;;5050294;28;20924;-65
2023/06/27 02:42:52;;;;;;;4.90;2.90;;;;;;;;;;5033335;28;20632;-63
2023/06/27 02:45:20;;;;;;;4.40;2.80;;;;;;;;;;5050560;28;20667;-64
2023/06/27 02:47:48;;;;;;;3.10;2.87;;;;;;;;;;5050357;28;20706;-64
2023/06/27 02:50:17;;;;;;;7.00;2.90;;;;;;;;;;5050829;28;20628;-64
2023/06/27 02:52:46;;;;;;;6.13;2.73;;;;;;;;;;5048324;28;20718;-67
2023/06/27 02:55:14;;;;;;;2.87;2.63;;;;;;;;;;5032859;28;21181;-65
2023/06/27 02:57:43;;;;;;;5.13;2.60;;;;;;;;;;5033752;28;20648;-63
2023/06/27 03:00:13;;;;;;;5.33;2.87;;;;;;;;;;5033849;28;20617;-64
2023/06/27 03:02:42;;;;;;;7.60;2.90;;;;;;;;;;5034072;28;20644;-63
2023/06/27 03:05:10;;;;;;;5.23;3.30;;;;;;;;;;5036535;28;20627;-66
2023/06/27 03:07:41;;;;;;;3.33;2.30;;;;;;;;;;5037619;28;20675;-63
2023/06/27 03:10:11;;;;;;;3.87;2.77;;;;;;;;;;5034190;28;20779;-63
2023/06/27 03:12:39;;;;;;;2.50;2.27;;;;;;;;;;5049062;28;20636;-63
2023/06/27 03:15:08;;;;;;;2.70;2.50;;;;;;;;;;5033977;28;20683;-63
2023/06/27 03:17:36;;;;;;;7.70;2.90;;;;;;;;;;5038589;28;20631;-63
2023/06/27 03:20:06;;;;;;;6.20;2.63;;;;;;;;;;5037246;28;21252;-67
2023/06/27 03:22:35;;;;;;;4.63;2.57;;;;;;;;;;5036958;28;20638;-63
2023/06/27 03:25:04;;;;;;;2.53;2.23;;;;;;;;;;5054119;28;20639;-63
2023/06/27 03:27:34;;;;;;;4.63;3.00;;;;;;;;;;5020353;28;20674;-64
2023/06/27 03:30:02;;;;;;;5.03;2.90;;;;;;;;;;5037191;28;20671;-64
2023/06/27 03:32:31;;;;;;;5.50;2.93;;;;;;;;;;5036400;28;20632;-63
2023/06/27 03:35:00;;;;;;;3.27;2.50;;;;;;;;;;5054721;28;20632;-63
2023/06/27 03:37:28;;;;;;;3.70;2.70;;;;;;;;;;5035552;28;20620;-64
2023/06/27 03:39:57;;;;;;;4.37;2.67;;;;;;;;;;5036789;28;20635;-64
2023/06/27 03:42:28;;;;;;;3.73;2.57;;;;;;;;;;5036781;28;20590;-64
2023/06/27 03:44:56;;;;;;;2.90;2.70;;;;;;;;;;5034916;28;20644;-64
2023/06/27 03:47:24;;;;;;;5.03;2.80;;;;;;;;;;5051221;28;20680;-66
2023/06/27 03:49:53;;;;;;;3.17;2.83;;;;;;;;;;5036284;28;20636;-63
2023/06/27 03:52:21;;;;;;;4.93;3.07;;;;;;;;;;5053229;28;20648;-63
2023/06/27 03:54:49;;;;;;;3.50;3.20;;;;;;;;;;5026132;28;20696;-64
2023/06/27 03:57:18;;;;;;;3.03;2.70;;;;;;;;;;5017043;28;20643;-64
2023/06/27 03:59:47;;;;;;;6.40;2.90;;;;;;;;;;5033723;28;20627;-66
2023/06/27 04:02:15;;;;;;;5.70;3.10;;;;;;;;;;5032471;28;20621;-64
2023/06/27 04:04:44;;;;;;;4.80;2.80;;;;;;;;;;5015974;28;20640;-68
2023/06/27 04:07:14;;;;;;;13.30;2.97;;;;;;;;;;5032351;28;20660;-64
2023/06/27 04:09:42;;;;;;;3.83;3.13;;;;;;;;;;5033766;28;20665;-63
2023/06/27 04:12:10;;;;;;;6.63;2.70;;;;;;;;;;5050389;28;20683;-67
2023/06/27 04:14:39;;;;;;;3.47;2.53;;;;;;;;;;5053289;28;20687;-63
2023/06/27 04:17:08;;;;;;;6.13;3.23;;;;;;;;;;5032046;28;20679;-63
2023/06/27 04:19:37;;;;;;;2.77;2.33;;;;;;;;;;5024872;28;20628;-64
2023/06/27 04:22:06;;;;;;;4.30;3.00;;;;;;;;;;5036507;28;20648;-64
2023/06/27 04:24:34;;;;;;;5.43;4.17;;;;;;;;;;5036223;28;20634;-64
2023/06/27 04:27:03;;;;;;;4.83;2.43;;;;;;;;;;5035390;28;20632;-64
2023/06/27 04:29:31;;;;;;;6.07;2.83;;;;;;;;;;5029870;28;20641;-63
2023/06/27 04:32:00;;;;;;;8.83;3.53;;;;;;;;;;5032966;28;20726;-65
2023/06/27 04:34:29;;;;;;;3.60;3.30;;;;;;;;;;5030615;28;20647;-65
2023/06/27 04:36:57;;;;;;;5.40;2.93;;;;;;;;;;5031597;28;20640;-64
2023/06/27 04:39:27;;;;;;;2.90;2.60;;;;;;;;;;5031164;28;20629;-64
2023/06/27 04:41:56;;;;;;;3.33;3.03;;;;;;;;;;5031387;28;20660;-64
2023/06/27 04:44:24;;;;;;;3.57;3.10;;;;;;;;;;5030220;28;20699;-66
2023/06/27 04:46:53;;;;;;;7.73;2.93;;;;;;;;;;5031439;28;20647;-64
2023/06/27 04:49:21;;;;;;;6.30;2.77;;;;;;;;;;5030102;28;20661;-64
2023/06/27 04:51:50;;;;;;;3.73;3.03;;;;;;;;;;5031443;28;20629;-63
2023/06/27 04:54:18;;;;;;;3.07;2.73;;;;;;;;;;5029312;28;20643;-64
2023/06/27 04:56:47;;;;;;;2.77;2.57;;;;;;;;;;5045174;28;20672;-65
2023/06/27 04:59:17;;;;;;;4.93;3.00;;;;;;;;;;5032695;28;20647;-67
2023/06/27 05:01:45;;;;;;;6.23;3.50;;;;;;;;;;5050362;28;20603;-65
2023/06/27 05:04:13;;;;;;;5.63;3.90;;;;;;;;;;5032071;28;20649;-66
2023/06/27 05:06:41;;;;;;;3.53;3.23;;;;;;;;;;5033085;28;20655;-64
2023/06/27 05:09:11;;;;;;;5.67;3.10;;;;;;;;;;5050579;28;20687;-65
2023/06/27 05:11:39;;;;;;;3.87;3.10;;;;;;;;;;5031058;28;20698;-64
2023/06/27 05:14:07;;;;;;;4.33;3.50;;;;;;;;;;5049341;28;20663;-64
2023/06/27 05:16:35;;;;;;;9.30;3.13;;;;;;;;;;5031956;28;21225;-65
2023/06/27 05:19:04;;;;;;;5.07;3.57;;;;;;;;;;5048204;28;20667;-67
2023/06/27 05:21:34;;;;;;;7.30;3.60;;;;;;;;;;5029354;28;20656;-62
2023/06/27 05:24:05;;;;;;;6.50;3.47;;;;;;;;;;5047185;28;20644;-64
2023/06/27 05:26:34;;;;;;;8.00;3.70;;;;;;;;;;5045670;28;20636;-64
2023/06/27 05:29:02;;;;;;;7.13;3.33;;;;;;;;;;5048003;28;20695;-63
2023/06/27 05:31:30;;;;;;;7.30;3.20;;;;;;;;;;5049610;28;20615;-62
2023/06/27 05:33:59;;;;;;;3.60;2.93;;;;;;;;;;5030249;28;20651;-63
2023/06/27 05:36:27;;;;;;;5.23;4.20;;;;;;;;;;5047959;28;21040;-63
2023/06/27 05:38:55;;;;;;;3.60;3.13;;;;;;;;;;5048243;28;20659;-63
2023/06/27 05:41:23;;;;;;;3.93;3.00;;;;;;;;;;5049122;28;20686;-63
2023/06/27 05:43:53;;;;;;;7.47;3.00;;;;;;;;;;5048374;28;20624;-64
2023/06/27 05:46:21;;;;;;;7.50;3.30;;;;;;;;;;5049052;28;20644;-63
2023/06/27 05:48:49;;;;;;;3.07;2.83;;;;;;;;;;5049442;28;20671;-63
2023/06/27 05:51:17;;;;;;;4.20;2.60;;;;;;;;;;5049329;28;20659;-63
2023/06/27 05:53:45;;;;;;;3.23;2.90;;;;;;;;;;5030068;28;20655;-66
2023/06/27 05:56:14;;;;;;;3.40;2.70;;;;;;;;;;5014927;28;20682;-67
2023/06/27 05:58:42;;;;;;;3.93;3.43;;;;;;;;;;5032123;28;20604;-66
2023/06/27 06:01:12;;;;;;;5.50;3.37;;;;;;;;;;5032069;28;20622;-65
2023/06/27 06:03:40;;;;;;;6.20;3.63;;;;;;;;;;5028215;28;20627;-66
2023/06/27 06:06:10;;;;;;;4.17;3.10;;;;;;;;;;5033193;28;21229;-64
2023/06/27 06:08:38;;;;;;;3.03;2.73;;;;;;;;;;5023676;28;20644;-65
2023/06/27 06:11:06;;;;;;;2.93;2.83;;;;;;;;;;5013718;28;20641;-65
2023/06/27 06:13:35;;;;;;;6.83;2.60;;;;;;;;;;5031698;28;20634;-66
2023/06/27 06:16:03;;;;;;;4.20;2.83;;;;;;;;;;5031886;28;21170;-65
2023/06/27 06:18:33;;;;;;;3.57;3.00;;;;;;;;;;5030968;28;20990;-64
2023/06/27 06:21:01;;;;;;;2.90;2.70;;;;;;;;;;5013275;28;21178;-65
2023/06/27 06:23:29;;;;;;;4.53;3.53;;;;;;;;;;5031273;28;20615;-65
2023/06/27 06:25:58;;;;;;;3.03;2.83;;;;;;;;;;5030131;28;20611;-65
2023/06/27 06:28:26;;;;;;;3.27;3.03;;;;;;;;;;5030909;28;20714;-65
2023/06/27 06:30:54;;;;;;;3.70;3.43;;;;;;;;;;5031307;28;21173;-65
2023/06/27 06:33:24;;;;;;;2.90;2.80;;;;;;;;;;5013186;28;20631;-66
2023/06/27 06:35:53;;;;;;;2.50;2.40;;;;;;;;;;5037840;28;20699;-64
2023/06/27 06:38:21;;;;;;;3.33;2.97;;;;;;;;;;5037377;28;20991;-66
2023/06/27 06:40:50;;;;;;;3.33;3.13;;;;;;;;;;5033777;28;20666;-65
2023/06/27 06:43:18;;;;;;;2.73;2.53;;;;;;;;;;5039997;28;20710;-65
2023/06/27 06:45:46;;;;;;;2.77;2.60;;;;;;;;;;5036435;28;20721;-65
2023/06/27 06:48:14;;;;;;;3.90;3.10;;;;;;;;;;5034596;28;20624;-65
2023/06/27 06:50:42;;;;;;;3.00;2.80;;;;;;;;;;5032053;28;20638;-64
2023/06/27 06:53:12;;;;;;;6.23;2.70;;;;;;;;;;5034064;28;20646;-64
2023/06/27 06:55:40;;;;;;;3.00;2.80;;;;;;;;;;5033600;28;20616;-65
2023/06/27 06:58:08;;;;;;;3.30;3.10;;;;;;;;;;5027911;28;20633;-64
2023/06/27 07:00:37;;;;;;;3.03;2.77;;;;;;;;;;5027974;28;20643;-66
2023/06/27 07:03:08;;;;;;;4.13;3.13;;;;;;;;;;5037789;28;20716;-66
2023/06/27 07:05:36;;;;;;;5.90;2.90;;;;;;;;;;5036884;28;20608;-67
2023/06/27 07:08:05;;;;;;;7.70;3.20;;;;;;;;;;5034639;28;21047;-66
2023/06/27 07:10:34;;;;;;;5.93;3.40;;;;;;;;;;5015833;28;20683;-66
2023/06/27 07:13:02;;;;;;;4.87;3.20;;;;;;;;;;5031807;28;20632;-65
2023/06/27 07:15:31;;;;;;;2.90;2.70;;;;;;;;;;5017331;28;20993;-65
2023/06/27 07:17:59;;;;;;;4.70;2.97;;;;;;;;;;5035495;28;20705;-66
2023/06/27 07:20:28;;;;;;;5.17;3.03;;;;;;;;;;5041071;28;20739;-66
2023/06/27 07:22:56;;;;;;;3.70;3.40;;;;;;;;;;5047419;28;21201;-65
2023/06/27 07:25:24;;;;;;;3.43;2.93;;;;;;;;;;5050593;28;20665;-65
2023/06/27 07:27:54;;;;;;;2.93;2.73;;;;;;;;;;5049860;28;21077;-65
2023/06/27 07:30:22;;;;;;;3.70;3.40;;;;;;;;;;5034321;28;21201;-66
2023/06/27 07:32:50;;;;;;;3.40;2.93;;;;;;;;;;5014540;28;20617;-65
2023/06/27 07:35:18;;;;;;;3.33;3.10;;;;;;;;;;5015700;28;20624;-65
2023/06/27 07:37:47;;;;;;;8.50;3.10;;;;;;;;;;5046214;28;20667;-68
2023/06/27 07:40:15;;;;;;;3.20;3.00;;;;;;;;;;5056329;28;20666;-69
2023/06/27 07:42:43;;;;;;;3.30;3.10;;;;;;;;;;5056359;28;20646;-68
2023/06/27 07:45:13;;;;;;;3.03;2.83;;;;;;;;;;5055563;28;20647;-68
2023/06/27 07:47:42;;;;;;;3.77;3.00;;;;;;;;;;5028566;28;20769;-66
2023/06/27 07:50:10;;;;;;;3.97;3.20;;;;;;;;;;5014076;28;21107;-65
2023/06/27 07:52:39;;;;;;;3.33;3.13;;;;;;;;;;5031732;28;20950;-66
2023/06/27 07:55:08;;;;;;;3.30;3.00;;;;;;;;;;5015600;28;20634;-65
2023/06/27 07:57:36;;;;;;;3.50;3.20;;;;;;;;;;5031994;28;20628;-66
2023/06/27 08:00:05;;;;;;;3.30;2.77;;;;;;;;;;5031911;28;20960;-65
2023/06/27 08:02:41;;;;;;;3.10;2.90;;;;;;;;;;5031141;28;20664;-65
2023/06/27 08:05:10;;;;;;;3.77;3.17;;;;;;;;;;5031955;28;20620;-66
2023/06/27 08:07:38;;;;;;;4.03;2.87;;;;;;;;;;5032496;28;20615;-65
2023/06/27 08:10:07;;;;;;;3.63;2.90;;;;;;;;;;5032723;28;21260;-65
2023/06/27 08:12:35;;;;;;;7.50;2.87;;;;;;;;;;5032331;28;20636;-64
2023/06/27 08:15:03;;;;;;;3.50;3.20;;;;;;;;;;5032530;28;21062;-67
2023/06/27 08:17:32;;;;;;;3.20;3.00;;;;;;;;;;5016493;28;20634;-65
2023/06/27 08:20:02;;;;;;;6.57;3.27;;;;;;;;;;5032094;28;20630;-65
2023/06/27 08:22:30;;;;;;;3.07;2.77;;;;;;;;;;4999201;28;20632;-65
2023/06/27 08:24:58;;;;;;;5.50;3.50;;;;;;;;;;5030702;28;20638;-66
2023/06/27 08:27:26;;;;;;;3.13;3.00;;;;;;;;;;5032396;28;20622;-64
2023/06/27 08:29:54;;;;;;;4.10;3.70;;;;;;;;;;5030709;28;20664;-64
2023/06/27 08:32:23;;;;;;;3.37;3.07;;;;;;;;;;5031562;28;20626;-65
2023/06/27 08:34:51;;;;;;;4.00;3.13;;;;;;;;;;5030228;28;20633;-64
2023/06/27 08:37:21;;;;;;;5.40;3.17;;;;;;;;;;5032036;28;20628;-65
2023/06/27 08:39:51;;;;;;;3.93;3.63;;;;;;;;;;5031035;28;20943;-64
2023/06/27 08:42:20;;;;;;;11.93;4.20;;;;;;;;;;5033163;28;20673;-66
2023/06/27 08:44:48;;;;;;;5.17;3.57;;;;;;;;;;5031805;28;20640;-67
2023/06/27 08:47:18;;;;;;;3.73;3.30;;;;;;;;;;5039798;28;20699;-65
2023/06/27 08:49:50;;;;;;;5.63;3.13;;;;;;;;;;5031301;28;20640;-67
2023/06/27 08:52:20;;;;;;;3.30;3.00;;;;;;;;;;5031538;28;21146;-65
2023/06/27 08:54:54;;;;;;;4.17;3.40;;;;;;;;;;5030062;28;20620;-67
2023/06/27 08:57:24;;;;;;;6.17;3.33;;;;;;;;;;5031702;28;20611;-64
2023/06/27 08:59:53;;;;;;;3.80;3.50;;;;;;;;;;5030339;28;21002;-66
2023/06/27 09:02:22;;;;;;;5.53;3.50;;;;;;;;;;5029807;28;20623;-65
2023/06/27 09:04:50;;;;;;;3.60;3.03;;;;;;;;;;5029365;28;20638;-66
2023/06/27 09:07:19;;;;;;;7.70;3.60;;;;;;;;;;5031309;28;20628;-65
2023/06/27 09:09:48;;;;;;;4.23;3.50;;;;;;;;;;5028825;28;20679;-65
2023/06/27 09:12:17;;;;;;;5.30;3.50;;;;;;;;;;5016247;28;20637;-66
2023/06/27 09:14:45;;;;;;;6.27;3.63;;;;;;;;;;5030600;28;20628;-64
2023/06/27 09:17:14;;;;;;;3.50;3.20;;;;;;;;;;5033641;28;20642;-67
2023/06/27 09:19:43;;;;;;;4.17;3.50;;;;;;;;;;5032981;28;20631;-65
2023/06/27 09:22:11;;;;;;;3.57;3.37;;;;;;;;;;5033843;28;20627;-64
2023/06/27 09:24:41;;;;;;;4.27;3.20;;;;;;;;;;5032148;28;20627;-64
2023/06/27 09:27:29;;;;;;;3.80;3.50;;;;;;;;;;5031954;28;20626;-64
2023/06/27 09:30:02;;;;;;;3.70;3.40;;;;;;;;;;5029787;28;21213;-63
2023/06/27 09:32:31;;;;;;;4.27;3.43;;;;;;;;;;5030409;28;21239;-63
2023/06/27 09:35:02;;;;;;;3.33;3.07;;;;;;;;;;5030530;28;20630;-63
2023/06/27 09:37:31;;;;;;;3.90;3.60;;;;;;;;;;5012933;28;20600;-63
2023/06/27 09:40:00;;;;;;;4.47;3.37;;;;;;;;;;5030156;28;20628;-63
2023/06/27 09:42:31;;;;;;;3.50;3.30;;;;;;;;;;5030621;28;20913;-63
2023/06/27 09:47:53;;;;;;;3.70;3.20;;;;;;;;;;5089849;27;20722;-60
2023/06/27 09:50:26;;;;;;;5.00;3.67;;;;;;;;;;5088420;28;20609;-61
2023/06/27 09:52:54;;;;;;;3.40;3.10;;;;;;;;;;5088206;28;21342;-61
2023/06/27 09:55:23;;;;;;;3.90;3.63;;;;;;;;;;5087786;28;20624;-61
2023/06/27 09:57:51;;;;;;;3.53;3.00;;;;;;;;;;5087060;28;20979;-61
2023/06/27 10:00:20;;;;;;;6.10;3.23;;;;;;;;;;5087462;28;21191;-61
2023/06/27 10:02:48;;;;;;;3.93;3.37;;;;;;;;;;5088101;28;20682;-62
2023/06/27 10:05:19;;;;;;;4.00;3.40;;;;;;;;;;5087925;28;20682;-62
2023/06/27 10:07:49;;;;;;;3.33;3.10;;;;;;;;;;5088060;28;21168;-61
2023/06/27 10:10:17;;;;;;;4.90;3.97;;;;;;;;;;5086052;28;20649;-61
2023/06/27 10:12:45;;;;;;;4.60;3.30;;;;;;;;;;5081037;28;20630;-62
2023/06/27 10:15:14;;;;;;;5.27;3.80;;;;;;;;;;5085234;28;20633;-64
2023/06/27 10:17:42;;;;;;;3.70;3.47;;;;;;;;;;5079019;28;20630;-62
2023/06/27 10:20:13;;;;;;;4.03;3.67;;;;;;;;;;5067411;28;20977;-63
2023/06/27 10:22:43;;;;;;;3.70;3.50;;;;;;;;;;5072167;28;20605;-63
2023/06/27 10:25:12;;;;;;;3.83;3.43;;;;;;;;;;5076174;28;20613;-63
2023/06/27 10:27:42;;;;;;;5.70;3.53;;;;;;;;;;5081440;28;20723;-63
2023/06/27 10:30:25;;;;;;;4.20;3.47;;;;;;;;;;5072952;28;21092;-62
2023/06/27 10:33:08;;;;;;;3.63;3.43;;;;;;;;;;5075045;28;20608;-63
2023/06/27 10:35:39;;;;;;;3.83;3.50;;;;;;;;;;5071318;28;20681;-63
2023/06/27 10:38:09;;;;;;;4.07;3.40;;;;;;;;;;5068664;28;20604;-63
2023/06/27 10:40:57;;;;;;;5.23;3.33;;;;;;;;;;5088296;28;20586;-63
2023/06/27 10:43:38;;;;;;;3.53;3.23;;;;;;;;;;5076220;28;20613;-63
2023/06/27 10:46:07;;;;;;;5.27;3.60;;;;;;;;;;5083450;28;21001;-64
2023/06/27 10:48:36;;;;;;;4.80;3.43;;;;;;;;;;5079396;28;20624;-64
2023/06/27 10:51:04;;;;;;;3.97;3.57;;;;;;;;;;5080857;28;20679;-64
2023/06/27 10:53:34;;;;;;;4.30;3.67;;;;;;;;;;5071548;28;20908;-64
2023/06/27 10:56:15;;;;;;;4.50;3.43;;;;;;;;;;5066164;28;21184;-64
2023/06/27 10:58:45;;;;;;;3.50;3.20;;;;;;;;;;5058396;28;21064;-64
2023/06/27 11:01:13;;;;;;;4.30;4.00;;;;;;;;;;5058477;28;20630;-61
2023/06/27 11:03:43;;;;;;;3.70;3.50;;;;;;;;;;5061801;28;20623;-62
2023/06/27 11:06:11;;;;;;;4.10;3.60;;;;;;;;;;5063113;28;20630;-62
2023/06/27 11:08:41;;;;;;;6.83;3.87;;;;;;;;;;5061209;28;20636;-62
2023/06/27 11:11:10;;;;;;;12.97;4.10;;;;;;;;;;5067120;28;21014;-62
2023/06/27 11:13:40;;;;;;;6.53;3.43;;;;;;;;;;5074172;28;20620;-62
2023/06/27 11:16:08;;;;;;;5.10;3.60;;;;;;;;;;5067355;28;21272;-62
2023/06/27 11:18:37;;;;;;;3.70;3.40;;;;;;;;;;5058700;28;20638;-62
2023/06/27 11:21:05;;;;;;;8.50;3.67;;;;;;;;;;5054242;28;20615;-62
2023/06/27 11:23:34;;;;;;;7.37;4.17;;;;;;;;;;5062414;28;20687;-62
2023/06/27 11:26:04;;;;;;;14.30;4.20;;;;;;;;;;5058550;28;21203;-63
2023/06/27 11:28:32;;;;;;;4.87;4.20;;;;;;;;;;5059581;28;20650;-63
2023/06/27 11:31:01;;;;;;;4.23;4.00;;;;;;;;;;5060456;28;21044;-63
2023/06/27 11:33:30;;;;;;;4.60;3.80;;;;;;;;;;5064874;28;20633;-63
2023/06/27 11:35:59;;;;;;;3.73;3.43;;;;;;;;;;5065351;28;20626;-63
2023/06/27 11:38:28;;;;;;;3.40;3.20;;;;;;;;;;5058353;28;20627;-62
2023/06/27 11:40:56;;;;;;;4.47;3.73;;;;;;;;;;5060983;28;20622;-63
2023/06/27 11:43:27;;;;;;;4.70;3.70;;;;;;;;;;5063275;28;20626;-63
2023/06/27 11:45:56;;;;;;;4.50;3.77;;;;;;;;;;5052383;28;20650;-62
2023/06/27 11:48:24;;;;;;;4.10;3.90;;;;;;;;;;5055300;28;20653;-63
2023/06/27 11:50:56;;;;;;;3.57;3.47;;;;;;;;;;5058008;28;20653;-64
2023/06/27 11:53:26;;;;;;;4.57;3.40;;;;;;;;;;5058877;28;20683;-64
2023/06/27 11:55:55;;;;;;;5.93;3.90;;;;;;;;;;5060006;28;21240;-64
2023/06/27 11:58:31;;;;;;;3.80;3.50;;;;;;;;;;5062498;28;20614;-63
2023/06/27 12:01:00;;;;;;;3.80;3.50;;;;;;;;;;5060203;28;20606;-64
2023/06/27 12:03:29;;;;;;;5.07;3.70;;;;;;;;;;5060535;28;20673;-63
2023/06/27 12:05:58;;;;;;;4.57;3.57;;;;;;;;;;5059864;28;20615;-62
2023/06/27 12:08:30;;;;;;;3.67;3.40;;;;;;;;;;5068256;28;20672;-63
2023/06/27 12:11:00;;;;;;;3.90;3.60;;;;;;;;;;5066770;28;21059;-63
2023/06/27 12:13:34;;;;;;;3.83;3.50;;;;;;;;;;5067888;28;20603;-64
2023/06/27 12:16:03;;;;;;;6.07;3.17;;;;;;;;;;5068669;28;20594;-63
2023/06/27 12:18:33;;;;;;;3.80;3.60;;;;;;;;;;5061648;28;20672;-63
2023/06/27 12:21:01;;;;;;;4.00;3.60;;;;;;;;;;5053199;28;20626;-64
2023/06/27 12:23:31;;;;;;;5.10;4.03;;;;;;;;;;5063547;28;21225;-63
2023/06/27 12:25:59;;;;;;;4.03;3.73;;;;;;;;;;5061413;28;20979;-63
2023/06/27 12:28:27;;;;;;;4.23;3.83;;;;;;;;;;5054379;28;20657;-63
2023/06/27 12:30:57;;;;;;;3.93;3.70;;;;;;;;;;5059100;28;20634;-63
2023/06/27 12:33:25;;;;;;;4.50;4.10;;;;;;;;;;5051830;28;20625;-64
2023/06/27 12:35:54;;;;;;;13.10;4.00;;;;;;;;;;5051057;28;20627;-64
2023/06/27 12:38:22;;;;;;;3.63;3.43;;;;;;;;;;5051404;28;20628;-63
2023/06/27 12:40:50;;;;;;;3.97;3.63;;;;;;;;;;5055692;28;20644;-65
2023/06/27 12:43:18;;;;;;;7.13;3.30;;;;;;;;;;5061223;28;21098;-62
2023/06/27 12:46:00;;;;;;;8.23;3.90;;;;;;;;;;5064116;28;20661;-64
2023/06/27 12:48:28;;;;;;;3.80;3.60;;;;;;;;;;5062165;28;20654;-63
2023/06/27 12:50:57;;;;;;;11.30;3.77;;;;;;;;;;5057919;28;20969;-63
2023/06/27 12:53:25;;;;;;;4.47;4.07;;;;;;;;;;5065098;28;20626;-64
2023/06/27 12:55:54;;;;;;;3.63;3.37;;;;;;;;;;5063343;28;20614;-63
2023/06/27 12:58:22;;;;;;;4.20;3.90;;;;;;;;;;5059995;28;20626;-64
2023/06/27 13:00:50;;;;;;;4.13;3.77;;;;;;;;;;5063295;28;20629;-64
2023/06/27 13:03:20;;;;;;;3.70;3.40;;;;;;;;;;5059489;28;21203;-63
2023/06/27 13:05:48;;;;;;;6.93;3.90;;;;;;;;;;5065373;28;20714;-63
2023/06/27 13:08:17;;;;;;;3.83;3.53;;;;;;;;;;5063020;28;20679;-63
2023/06/27 13:10:46;;;;;;;6.57;4.07;;;;;;;;;;5052967;28;20657;-63
2023/06/27 13:13:14;;;;;;;4.43;4.00;;;;;;;;;;5072501;28;20691;-66
2023/06/27 13:15:42;;;;;;;3.67;3.47;;;;;;;;;;5052787;28;20952;-63
2023/06/27 13:18:10;;;;;;;3.67;3.37;;;;;;;;;;5055679;28;20623;-64
2023/06/27 13:20:40;;;;;;;4.40;3.53;;;;;;;;;;5059338;28;20917;-63
2023/06/27 13:23:09;;;;;;;4.10;3.80;;;;;;;;;;5060537;28;21184;-63
2023/06/27 13:25:37;;;;;;;3.80;3.50;;;;;;;;;;5063428;28;20980;-62
2023/06/27 13:28:05;;;;;;;5.63;4.13;;;;;;;;;;5058712;28;21079;-63
2023/06/27 13:30:34;;;;;;;5.17;3.67;;;;;;;;;;5062698;28;21335;-63
2023/06/27 13:33:02;;;;;;;4.50;3.63;;;;;;;;;;5055229;28;20638;-64
2023/06/27 13:35:30;;;;;;;4.27;3.90;;;;;;;;;;5061383;28;20624;-62
2023/06/27 13:38:02;;;;;;;6.03;3.30;;;;;;;;;;5064105;28;20825;-63
2023/06/27 13:40:30;;;;;;;4.73;4.03;;;;;;;;;;5061146;28;20624;-63
2023/06/27 13:42:58;;;;;;;3.43;3.27;;;;;;;;;;5065961;28;20637;-63
2023/06/27 13:45:27;;;;;;;4.20;3.80;;;;;;;;;;5064967;28;20638;-63
2023/06/27 13:47:55;;;;;;;3.93;3.60;;;;;;;;;;5049405;28;20662;-63
2023/06/27 13:50:23;;;;;;;6.97;3.90;;;;;;;;;;5059734;28;20626;-63
2023/06/27 13:52:51;;;;;;;3.93;3.73;;;;;;;;;;5069681;28;20622;-63
2023/06/27 13:55:21;;;;;;;6.93;3.80;;;;;;;;;;5053897;28;21026;-62
2023/06/27 13:57:49;;;;;;;3.80;3.50;;;;;;;;;;5065322;28;20634;-64
2023/06/27 14:00:18;;;;;;;4.80;3.40;;;;;;;;;;5061331;28;20636;-64
2023/06/27 14:02:48;;;;;;;6.60;3.90;;;;;;;;;;5068265;28;20627;-63
2023/06/27 14:05:34;;;;;;;5.63;3.77;;;;;;;;;;5078117;28;20653;-62
2023/06/27 14:08:03;;;;;;;4.10;3.80;;;;;;;;;;5077376;28;20651;-62
2023/06/27 14:10:32;;;;;;;3.87;3.67;;;;;;;;;;5052533;28;21249;-63
2023/06/27 14:13:00;;;;;;;4.80;3.70;;;;;;;;;;5050083;28;21054;-62
2023/06/27 14:15:29;;;;;;;3.90;3.60;;;;;;;;;;5049549;28;20619;-62
2023/06/27 14:17:58;;;;;;;7.60;4.03;;;;;;;;;;5050801;28;20611;-62
2023/06/27 14:20:27;;;;;;;4.13;3.73;;;;;;;;;;5051536;28;20613;-63
2023/06/27 14:22:58;;;;;;;4.27;3.97;;;;;;;;;;5049337;28;21169;-63
2023/06/27 14:25:27;;;;;;;3.90;3.40;;;;;;;;;;5051085;28;20586;-63
2023/06/27 14:27:56;;;;;;;3.50;3.30;;;;;;;;;;5050261;28;20655;-63
2023/06/27 14:30:25;;;;;;;4.97;3.73;;;;;;;;;;5051449;28;20687;-63
2023/06/27 14:32:53;;;;;;;5.13;3.60;;;;;;;;;;5051139;28;20611;-63
2023/06/27 14:35:22;;;;;;;5.00;4.33;;;;;;;;;;5055099;28;20607;-63
2023/06/27 14:37:50;;;;;;;8.70;4.00;;;;;;;;;;5055390;28;20623;-63
2023/06/27 14:40:18;;;;;;;6.87;4.50;;;;;;;;;;5055238;28;20602;-62
2023/06/27 14:42:47;;;;;;;4.60;4.20;;;;;;;;;;5054824;28;21011;-63
2023/06/27 14:45:16;;;;;;;4.10;3.80;;;;;;;;;;5054274;28;20650;-63
2023/06/27 14:47:45;;;;;;;3.53;3.23;;;;;;;;;;5054501;28;20680;-63
2023/06/27 14:50:13;;;;;;;4.27;3.97;;;;;;;;;;5054891;28;20621;-63
2023/06/27 14:52:41;;;;;;;3.73;3.30;;;;;;;;;;5053824;28;20631;-63
2023/06/27 14:55:10;;;;;;;3.97;3.67;;;;;;;;;;5055311;28;20857;-63
2023/06/27 14:57:38;;;;;;;4.60;3.70;;;;;;;;;;5055248;28;20614;-63